createdAt,value
2023-03-23T15:58:52.598Z,13.94
2023-03-23T16:01:28.447Z,13.90
2023-03-23T16:04:22.253Z,13.93
2023-03-23T16:06:52.349Z,13.93
2023-03-23T16:09:21.181Z,13.90
2023-03-23T16:11:48.946Z,13.90
2023-03-23T16:14:16.351Z,14.02
2023-03-23T16:16:53.091Z,14.05
2023-03-23T16:19:24.498Z,14.05
2023-03-23T16:21:52.302Z,14.03
2023-03-23T16:24:19.944Z,14.06
2023-03-23T16:26:47.444Z,14.06
2023-03-23T16:29:28.222Z,14.04
2023-03-23T16:32:02.030Z,14.02
2023-03-23T16:34:33.405Z,14.07
2023-03-23T16:37:01.108Z,14.09
2023-03-23T16:39:28.955Z,14.09
2023-03-23T16:41:56.468Z,14.10
2023-03-23T16:44:23.986Z,14.09
2023-03-23T16:46:51.443Z,14.10
2023-03-23T16:49:18.899Z,14.09
2023-03-23T16:51:48.224Z,14.09
2023-03-23T16:54:15.992Z,14.10
2023-03-23T16:56:46.992Z,14.09
2023-03-23T16:59:14.891Z,14.10
2023-03-23T17:01:45.105Z,14.06
2023-03-23T17:04:12.809Z,14.05
2023-03-23T17:06:40.511Z,14.10
2023-03-23T17:09:08.069Z,14.06
2023-03-23T17:11:35.904Z,14.06
2023-03-23T17:14:03.431Z,14.04
2023-03-23T17:16:30.970Z,14.06
2023-03-23T17:18:58.451Z,14.07
2023-03-23T17:21:26.131Z,14.01
2023-03-23T17:23:53.948Z,13.97
2023-03-23T17:26:21.428Z,13.95
2023-03-23T17:28:49.004Z,13.94
2023-03-23T17:31:16.594Z,13.97
2023-03-23T17:33:44.051Z,13.96
2023-03-23T17:36:11.893Z,13.97
2023-03-23T17:38:39.440Z,14.07
2023-03-23T17:41:08.234Z,13.94
2023-03-23T17:43:36.499Z,13.85
2023-03-23T17:46:04.610Z,13.78
2023-03-23T17:48:32.140Z,13.71
2023-03-23T17:50:59.973Z,13.71
2023-03-23T17:53:27.845Z,13.74
2023-03-23T17:55:57.029Z,13.73
2023-03-23T17:58:27.874Z,13.70
2023-03-23T18:00:56.131Z,13.66
2023-03-23T18:03:25.072Z,13.61
2023-03-23T18:06:01.432Z,13.62
2023-03-23T18:08:29.634Z,13.56
2023-03-23T18:10:58.330Z,13.58
2023-03-23T18:13:27.693Z,13.54
2023-03-23T18:15:56.403Z,13.50
2023-03-23T18:18:24.852Z,13.49
2023-03-23T18:21:01.976Z,13.40
2023-03-23T18:23:39.016Z,13.45
2023-03-23T18:26:14.221Z,13.42
2023-03-23T18:28:41.782Z,13.46
2023-03-23T18:31:14.737Z,13.38
2023-03-23T18:33:46.849Z,13.34
2023-03-23T18:36:19.704Z,13.33
2023-03-23T18:38:48.542Z,13.26
2023-03-23T18:41:20.681Z,13.24
2023-03-23T18:43:48.186Z,13.24
2023-03-23T18:46:15.727Z,13.21
2023-03-23T18:48:43.987Z,13.20
2023-03-23T18:51:11.662Z,13.11
2023-03-23T18:53:39.158Z,13.10
2023-03-23T18:56:16.268Z,13.08
2023-03-23T18:58:46.210Z,13.06
2023-03-23T19:01:17.080Z,13.07
2023-03-23T19:03:45.461Z,13.04
2023-03-23T19:06:21.378Z,13.05
2023-03-23T19:08:49.680Z,13.10
2023-03-23T19:11:17.472Z,13.08
2023-03-23T19:13:58.418Z,13.08
2023-03-23T19:16:29.093Z,13.07
2023-03-23T19:18:56.510Z,13.01
2023-03-23T19:21:25.427Z,12.91
2023-03-23T19:23:55.048Z,12.82
2023-03-23T19:26:29.040Z,12.84
2023-03-23T19:31:28.194Z,12.59
2023-03-23T19:33:55.810Z,12.58
2023-03-23T19:36:24.449Z,12.31
2023-03-23T19:38:54.350Z,12.32
2023-03-23T19:41:22.178Z,12.21
2023-03-23T19:43:49.709Z,12.33
2023-03-23T19:46:17.789Z,12.35
2023-03-23T19:48:46.618Z,12.15
2023-03-23T19:51:18.785Z,12.15
2023-03-23T19:53:46.671Z,12.21
2023-03-23T19:56:18.106Z,12.22
2023-03-23T19:58:46.215Z,12.25
2023-03-23T20:01:13.786Z,12.29
2023-03-23T20:03:42.319Z,12.15
2023-03-23T20:06:15.033Z,12.08
2023-03-23T20:08:50.572Z,12.04
2023-03-23T20:11:19.602Z,12.03
2023-03-23T20:13:48.783Z,11.97
2023-03-23T20:16:17.916Z,11.97
2023-03-23T20:18:47.427Z,12.03
2023-03-23T20:21:20.018Z,11.96
2023-03-23T20:23:47.950Z,11.94
2023-03-23T20:26:27.261Z,12.08
2023-03-23T20:28:55.576Z,12.22
2023-03-23T20:31:26.693Z,12.28
2023-03-23T20:34:06.235Z,12.36
2023-03-23T20:36:37.682Z,12.37
2023-03-23T20:39:08.276Z,12.37
2023-03-23T20:41:36.478Z,12.40
2023-03-23T20:44:05.720Z,12.36
2023-03-23T20:46:33.811Z,12.38
2023-03-23T20:49:01.878Z,12.42
2023-03-23T20:51:29.813Z,12.39
2023-03-23T20:53:57.218Z,12.35
2023-03-23T20:56:25.734Z,12.34
2023-03-23T20:58:53.652Z,12.35
2023-03-23T21:01:21.688Z,12.29
2023-03-23T21:03:52.242Z,12.26
2023-03-23T21:06:21.209Z,12.28
2023-03-23T21:08:49.157Z,12.24
2023-03-23T21:11:21.804Z,12.19
2023-03-23T21:13:50.753Z,12.15
2023-03-23T21:16:19.057Z,12.14
2023-03-23T21:18:47.892Z,12.11
2023-03-23T21:21:18.502Z,12.14
2023-03-23T21:23:47.280Z,12.16
2023-03-23T21:26:17.057Z,12.18
2023-03-23T21:28:45.446Z,12.18
2023-03-23T21:31:13.684Z,12.14
2023-03-23T21:33:41.569Z,12.18
2023-03-23T21:36:09.449Z,12.17
2023-03-23T21:38:38.377Z,12.24
2023-03-23T21:41:14.021Z,12.22
2023-03-23T21:43:41.449Z,12.23
2023-03-23T21:46:09.730Z,12.27
2023-03-23T21:48:41.622Z,12.25
2023-03-23T21:51:13.645Z,12.30
2023-03-23T21:53:42.199Z,12.32
2023-03-23T21:56:11.715Z,12.27
2023-03-23T21:58:39.264Z,12.25
2023-03-23T22:01:07.140Z,12.28
2023-03-23T22:03:35.585Z,12.26
2023-03-23T22:06:26.416Z,12.32
2023-03-23T22:08:54.883Z,12.28
2023-03-23T22:11:31.740Z,12.33
2023-03-23T22:14:00.270Z,12.34
2023-03-23T22:16:28.383Z,12.32
2023-03-23T22:18:58.927Z,12.36
2023-03-23T22:21:28.438Z,12.36
2023-03-23T22:23:59.239Z,12.27
2023-03-23T22:26:27.786Z,12.31
2023-03-23T22:28:56.156Z,12.32
2023-03-23T22:31:27.758Z,12.40
2023-03-23T22:33:59.135Z,12.38
2023-03-23T22:36:29.318Z,12.44
2023-03-23T22:38:57.148Z,12.43
2023-03-23T22:41:35.736Z,12.40
2023-03-23T22:44:04.247Z,12.49
2023-03-23T22:46:32.213Z,12.59
2023-03-23T22:48:59.710Z,12.42
2023-03-23T22:51:27.353Z,12.36
2023-03-23T22:53:56.474Z,12.27
2023-03-23T22:56:25.001Z,12.18
2023-03-23T22:58:53.326Z,12.15
2023-03-23T23:01:22.816Z,12.12
2023-03-23T23:03:50.778Z,12.08
2023-03-23T23:06:19.972Z,12.07
2023-03-23T23:08:48.192Z,12.07
2023-03-23T23:11:18.165Z,12.02
2023-03-23T23:13:46.102Z,11.99
2023-03-23T23:16:17.413Z,11.95
2023-03-23T23:18:47.810Z,11.90
2023-03-23T23:21:19.050Z,11.81
2023-03-23T23:23:46.891Z,11.79
2023-03-23T23:26:17.108Z,11.77
2023-03-23T23:28:46.636Z,11.78
2023-03-23T23:31:27.024Z,11.78
2023-03-23T23:33:58.341Z,11.74
2023-03-23T23:36:30.559Z,11.70
2023-03-23T23:39:00.056Z,11.68
2023-03-23T23:41:28.227Z,11.64
2023-03-23T23:43:55.838Z,11.52
2023-03-23T23:46:25.857Z,11.57
2023-03-23T23:48:53.361Z,11.47
2023-03-23T23:51:21.036Z,11.41
2023-03-23T23:53:53.694Z,11.47
2023-03-23T23:56:22.494Z,11.49
2023-03-23T23:58:49.906Z,11.51
